sensor_id;sensor_type;location;lat;lon;timestamp;P1;durP1;ratioP1;P2;durP2;ratioP2
5460;SDS011;2753;49.196;8.286;2023-06-19T00:02:20;8.33;;;7.63;;
5460;SDS011;2753;49.196;8.286;2023-06-19T00:04:47;9.27;;;8.13;;
5460;SDS011;2753;49.196;8.286;2023-06-19T00:07:12;8.50;;;7.70;;
5460;SDS011;2753;49.196;8.286;2023-06-19T00:09:38;9.67;;;7.40;;
5460;SDS011;2753;49.196;8.286;2023-06-19T00:12:04;8.77;;;6.80;;
5460;SDS011;2753;49.196;8.286;2023-06-19T00:14:41;8.70;;;7.80;;
5460;SDS011;2753;49.196;8.286;2023-06-19T00:17:07;9.37;;;7.90;;
5460;SDS011;2753;49.196;8.286;2023-06-19T00:19:33;10.97;;;8.17;;
5460;SDS011;2753;49.196;8.286;2023-06-19T00:22:02;8.23;;;7.53;;
5460;SDS011;2753;49.196;8.286;2023-06-19T00:24:28;10.57;;;7.53;;
5460;SDS011;2753;49.196;8.286;2023-06-19T00:26:54;10.80;;;7.70;;
5460;SDS011;2753;49.196;8.286;2023-06-19T00:49:50;7.47;;;6.77;;
5460;SDS011;2753;49.196;8.286;2023-06-19T00:52:16;11.03;;;7.03;;
5460;SDS011;2753;49.196;8.286;2023-06-19T00:54:43;7.33;;;6.73;;
5460;SDS011;2753;49.196;8.286;2023-06-19T00:57:09;16.87;;;7.40;;
5460;SDS011;2753;49.196;8.286;2023-06-19T00:59:35;11.30;;;7.20;;
5460;SDS011;2753;49.196;8.286;2023-06-19T01:02:01;7.60;;;6.90;;
5460;SDS011;2753;49.196;8.286;2023-06-19T01:04:28;7.20;;;6.50;;
5460;SDS011;2753;49.196;8.286;2023-06-19T01:06:56;6.50;;;5.93;;
5460;SDS011;2753;49.196;8.286;2023-06-19T01:09:31;9.90;;;6.27;;
5460;SDS011;2753;49.196;8.286;2023-06-19T01:12:08;8.70;;;5.97;;
5460;SDS011;2753;49.196;8.286;2023-06-19T01:14:47;6.80;;;6.20;;
5460;SDS011;2753;49.196;8.286;2023-06-19T01:17:19;6.83;;;5.30;;
5460;SDS011;2753;49.196;8.286;2023-06-19T01:19:46;5.40;;;5.00;;
5460;SDS011;2753;49.196;8.286;2023-06-19T01:22:21;5.87;;;5.13;;
5460;SDS011;2753;49.196;8.286;2023-06-19T01:24:48;7.10;;;5.53;;
5460;SDS011;2753;49.196;8.286;2023-06-19T01:27:14;6.07;;;5.57;;
5460;SDS011;2753;49.196;8.286;2023-06-19T01:29:40;5.73;;;5.30;;
5460;SDS011;2753;49.196;8.286;2023-06-19T01:32:13;5.70;;;5.20;;
5460;SDS011;2753;49.196;8.286;2023-06-19T01:34:44;4.93;;;4.53;;
5460;SDS011;2753;49.196;8.286;2023-06-19T01:37:11;8.60;;;5.20;;
5460;SDS011;2753;49.196;8.286;2023-06-19T01:39:38;9.00;;;5.47;;
5460;SDS011;2753;49.196;8.286;2023-06-19T01:42:05;10.47;;;6.10;;
5460;SDS011;2753;49.196;8.286;2023-06-19T01:44:34;5.87;;;5.33;;
5460;SDS011;2753;49.196;8.286;2023-06-19T01:47:07;6.77;;;5.90;;
5460;SDS011;2753;49.196;8.286;2023-06-19T01:49:36;5.93;;;4.50;;
5460;SDS011;2753;49.196;8.286;2023-06-19T01:52:03;12.63;;;4.60;;
5460;SDS011;2753;49.196;8.286;2023-06-19T01:54:29;4.20;;;3.90;;
5460;SDS011;2753;49.196;8.286;2023-06-19T01:56:55;3.60;;;3.40;;
5460;SDS011;2753;49.196;8.286;2023-06-19T01:59:21;6.87;;;3.97;;
5460;SDS011;2753;49.196;8.286;2023-06-19T02:01:47;6.13;;;3.90;;
5460;SDS011;2753;49.196;8.286;2023-06-19T02:04:13;8.77;;;3.70;;
5460;SDS011;2753;49.196;8.286;2023-06-19T02:06:38;3.90;;;3.60;;
5460;SDS011;2753;49.196;8.286;2023-06-19T02:09:04;2.73;;;2.50;;
5460;SDS011;2753;49.196;8.286;2023-06-19T02:11:30;3.50;;;3.20;;
5460;SDS011;2753;49.196;8.286;2023-06-19T02:13:56;2.73;;;2.63;;
5460;SDS011;2753;49.196;8.286;2023-06-19T02:16:21;3.00;;;2.80;;
5460;SDS011;2753;49.196;8.286;2023-06-19T02:18:47;5.27;;;3.00;;
5460;SDS011;2753;49.196;8.286;2023-06-19T02:21:13;2.73;;;2.63;;
5460;SDS011;2753;49.196;8.286;2023-06-19T02:23:38;3.23;;;2.93;;
5460;SDS011;2753;49.196;8.286;2023-06-19T02:26:04;3.33;;;2.83;;
5460;SDS011;2753;49.196;8.286;2023-06-19T02:28:30;3.03;;;2.77;;
5460;SDS011;2753;49.196;8.286;2023-06-19T02:30:55;11.03;;;2.73;;
5460;SDS011;2753;49.196;8.286;2023-06-19T02:33:21;3.60;;;2.90;;
5460;SDS011;2753;49.196;8.286;2023-06-19T02:35:47;2.70;;;2.50;;
5460;SDS011;2753;49.196;8.286;2023-06-19T02:38:12;2.70;;;2.43;;
5460;SDS011;2753;49.196;8.286;2023-06-19T02:40:39;2.70;;;2.50;;
5460;SDS011;2753;49.196;8.286;2023-06-19T02:43:05;5.60;;;2.80;;
5460;SDS011;2753;49.196;8.286;2023-06-19T02:45:31;2.70;;;2.50;;
5460;SDS011;2753;49.196;8.286;2023-06-19T02:47:57;3.10;;;2.63;;
5460;SDS011;2753;49.196;8.286;2023-06-19T02:50:22;2.93;;;2.73;;
5460;SDS011;2753;49.196;8.286;2023-06-19T02:52:48;4.43;;;2.30;;
5460;SDS011;2753;49.196;8.286;2023-06-19T02:55:14;3.73;;;3.17;;
5460;SDS011;2753;49.196;8.286;2023-06-19T02:57:39;3.17;;;2.87;;
5460;SDS011;2753;49.196;8.286;2023-06-19T03:00:05;3.37;;;3.17;;
5460;SDS011;2753;49.196;8.286;2023-06-19T03:02:31;11.13;;;3.30;;
5460;SDS011;2753;49.196;8.286;2023-06-19T03:04:57;4.00;;;3.33;;
5460;SDS011;2753;49.196;8.286;2023-06-19T03:07:23;4.30;;;3.90;;
5460;SDS011;2753;49.196;8.286;2023-06-19T03:09:53;4.33;;;3.90;;
5460;SDS011;2753;49.196;8.286;2023-06-19T03:12:19;26.77;;;4.00;;
5460;SDS011;2753;49.196;8.286;2023-06-19T03:14:45;6.20;;;3.20;;
5460;SDS011;2753;49.196;8.286;2023-06-19T03:17:10;4.10;;;3.20;;
5460;SDS011;2753;49.196;8.286;2023-06-19T03:19:37;5.33;;;3.80;;
5460;SDS011;2753;49.196;8.286;2023-06-19T03:22:03;4.03;;;3.73;;
5460;SDS011;2753;49.196;8.286;2023-06-19T03:24:28;5.20;;;3.80;;
5460;SDS011;2753;49.196;8.286;2023-06-19T03:26:54;4.87;;;3.80;;
5460;SDS011;2753;49.196;8.286;2023-06-19T03:29:20;4.53;;;4.13;;
5460;SDS011;2753;49.196;8.286;2023-06-19T03:31:45;4.53;;;4.00;;
5460;SDS011;2753;49.196;8.286;2023-06-19T03:34:11;4.23;;;3.80;;
5460;SDS011;2753;49.196;8.286;2023-06-19T03:36:37;5.23;;;4.73;;
5460;SDS011;2753;49.196;8.286;2023-06-19T03:39:03;5.33;;;4.70;;
5460;SDS011;2753;49.196;8.286;2023-06-19T03:41:29;4.10;;;3.70;;
5460;SDS011;2753;49.196;8.286;2023-06-19T03:43:55;4.50;;;4.13;;
5460;SDS011;2753;49.196;8.286;2023-06-19T03:46:21;4.73;;;4.13;;
5460;SDS011;2753;49.196;8.286;2023-06-19T03:48:47;5.87;;;4.50;;
5460;SDS011;2753;49.196;8.286;2023-06-19T03:51:12;6.77;;;4.70;;
5460;SDS011;2753;49.196;8.286;2023-06-19T03:53:38;5.33;;;4.47;;
5460;SDS011;2753;49.196;8.286;2023-06-19T03:56:04;4.70;;;4.33;;
5460;SDS011;2753;49.196;8.286;2023-06-19T03:58:29;8.40;;;4.97;;
5460;SDS011;2753;49.196;8.286;2023-06-19T04:00:55;6.77;;;4.80;;
5460;SDS011;2753;49.196;8.286;2023-06-19T04:03:21;6.77;;;4.40;;
5460;SDS011;2753;49.196;8.286;2023-06-19T04:05:46;10.63;;;5.27;;
5460;SDS011;2753;49.196;8.286;2023-06-19T04:08:12;4.97;;;4.47;;
5460;SDS011;2753;49.196;8.286;2023-06-19T04:10:38;11.60;;;4.17;;
5460;SDS011;2753;49.196;8.286;2023-06-19T04:13:03;8.00;;;5.07;;
5460;SDS011;2753;49.196;8.286;2023-06-19T04:15:31;4.93;;;4.53;;
5460;SDS011;2753;49.196;8.286;2023-06-19T04:17:58;6.00;;;4.27;;
5460;SDS011;2753;49.196;8.286;2023-06-19T04:20:25;6.30;;;4.77;;
5460;SDS011;2753;49.196;8.286;2023-06-19T04:22:51;5.50;;;4.97;;
5460;SDS011;2753;49.196;8.286;2023-06-19T04:25:17;10.33;;;5.07;;
5460;SDS011;2753;49.196;8.286;2023-06-19T04:27:43;5.90;;;5.20;;
5460;SDS011;2753;49.196;8.286;2023-06-19T04:30:12;7.57;;;4.87;;
5460;SDS011;2753;49.196;8.286;2023-06-19T04:32:38;5.33;;;4.53;;
5460;SDS011;2753;49.196;8.286;2023-06-19T04:35:05;5.17;;;4.67;;
5460;SDS011;2753;49.196;8.286;2023-06-19T04:37:32;4.40;;;3.80;;
5460;SDS011;2753;49.196;8.286;2023-06-19T04:39:58;5.60;;;5.07;;
5460;SDS011;2753;49.196;8.286;2023-06-19T04:42:24;5.83;;;4.30;;
5460;SDS011;2753;49.196;8.286;2023-06-19T04:44:51;5.20;;;4.70;;
5460;SDS011;2753;49.196;8.286;2023-06-19T04:47:19;4.80;;;4.40;;
5460;SDS011;2753;49.196;8.286;2023-06-19T04:49:45;11.00;;;4.20;;
5460;SDS011;2753;49.196;8.286;2023-06-19T04:52:11;5.90;;;4.20;;
5460;SDS011;2753;49.196;8.286;2023-06-19T04:54:37;5.53;;;5.13;;
5460;SDS011;2753;49.196;8.286;2023-06-19T04:57:03;4.60;;;4.20;;
5460;SDS011;2753;49.196;8.286;2023-06-19T05:23:35;4.07;;;3.77;;
5460;SDS011;2753;49.196;8.286;2023-06-19T05:26:03;6.50;;;3.83;;
5460;SDS011;2753;49.196;8.286;2023-06-19T05:28:29;3.37;;;3.10;;
5460;SDS011;2753;49.196;8.286;2023-06-19T05:30:55;4.57;;;4.13;;
5460;SDS011;2753;49.196;8.286;2023-06-19T05:33:21;8.83;;;4.60;;
5460;SDS011;2753;49.196;8.286;2023-06-19T05:35:48;5.23;;;4.30;;
5460;SDS011;2753;49.196;8.286;2023-06-19T05:38:17;7.13;;;4.40;;
5460;SDS011;2753;49.196;8.286;2023-06-19T05:40:43;7.20;;;4.33;;
5460;SDS011;2753;49.196;8.286;2023-06-19T05:43:09;4.13;;;3.90;;
5460;SDS011;2753;49.196;8.286;2023-06-19T05:45:35;5.70;;;4.20;;
5460;SDS011;2753;49.196;8.286;2023-06-19T05:48:00;7.73;;;4.00;;
5460;SDS011;2753;49.196;8.286;2023-06-19T05:50:26;4.70;;;4.03;;
5460;SDS011;2753;49.196;8.286;2023-06-19T05:52:51;3.87;;;3.57;;
5460;SDS011;2753;49.196;8.286;2023-06-19T05:55:17;5.10;;;4.67;;
5460;SDS011;2753;49.196;8.286;2023-06-19T05:57:43;4.20;;;3.90;;
5460;SDS011;2753;49.196;8.286;2023-06-19T06:00:09;4.33;;;3.93;;
5460;SDS011;2753;49.196;8.286;2023-06-19T06:02:40;5.10;;;4.03;;
5460;SDS011;2753;49.196;8.286;2023-06-19T06:05:06;4.60;;;4.00;;
5460;SDS011;2753;49.196;8.286;2023-06-19T06:07:34;4.17;;;3.77;;
5460;SDS011;2753;49.196;8.286;2023-06-19T06:10:00;4.43;;;4.13;;
5460;SDS011;2753;49.196;8.286;2023-06-19T06:12:25;4.30;;;3.90;;
5460;SDS011;2753;49.196;8.286;2023-06-19T06:14:51;5.47;;;3.40;;
5460;SDS011;2753;49.196;8.286;2023-06-19T06:17:16;3.33;;;3.13;;
5460;SDS011;2753;49.196;8.286;2023-06-19T06:19:42;3.93;;;3.73;;
5460;SDS011;2753;49.196;8.286;2023-06-19T06:22:08;3.80;;;3.37;;
5460;SDS011;2753;49.196;8.286;2023-06-19T06:24:33;3.70;;;3.23;;
5460;SDS011;2753;49.196;8.286;2023-06-19T06:26:59;3.77;;;3.53;;
5460;SDS011;2753;49.196;8.286;2023-06-19T06:29:25;4.00;;;3.70;;
5460;SDS011;2753;49.196;8.286;2023-06-19T06:31:50;4.20;;;3.90;;
5460;SDS011;2753;49.196;8.286;2023-06-19T06:34:19;4.20;;;3.63;;
5460;SDS011;2753;49.196;8.286;2023-06-19T06:36:45;4.43;;;4.00;;
5460;SDS011;2753;49.196;8.286;2023-06-19T06:39:10;4.43;;;4.00;;
5460;SDS011;2753;49.196;8.286;2023-06-19T06:41:36;4.33;;;3.97;;
5460;SDS011;2753;49.196;8.286;2023-06-19T06:44:02;6.23;;;4.93;;
5460;SDS011;2753;49.196;8.286;2023-06-19T06:46:30;4.53;;;4.17;;
5460;SDS011;2753;49.196;8.286;2023-06-19T06:48:56;5.47;;;3.70;;
5460;SDS011;2753;49.196;8.286;2023-06-19T06:51:21;4.20;;;3.90;;
5460;SDS011;2753;49.196;8.286;2023-06-19T06:53:47;7.53;;;4.43;;
5460;SDS011;2753;49.196;8.286;2023-06-19T06:56:13;4.87;;;4.40;;
5460;SDS011;2753;49.196;8.286;2023-06-19T06:58:39;5.23;;;4.43;;
5460;SDS011;2753;49.196;8.286;2023-06-19T07:01:04;5.90;;;3.90;;
5460;SDS011;2753;49.196;8.286;2023-06-19T07:03:30;5.83;;;4.30;;
5460;SDS011;2753;49.196;8.286;2023-06-19T07:05:57;4.63;;;4.33;;
5460;SDS011;2753;49.196;8.286;2023-06-19T07:08:23;11.70;;;4.83;;
5460;SDS011;2753;49.196;8.286;2023-06-19T07:10:49;5.00;;;4.50;;
5460;SDS011;2753;49.196;8.286;2023-06-19T07:13:14;5.20;;;4.87;;
5460;SDS011;2753;49.196;8.286;2023-06-19T07:15:40;5.10;;;4.70;;
5460;SDS011;2753;49.196;8.286;2023-06-19T07:18:06;4.47;;;4.07;;
5460;SDS011;2753;49.196;8.286;2023-06-19T07:20:31;5.40;;;4.90;;
5460;SDS011;2753;49.196;8.286;2023-06-19T07:22:57;4.67;;;4.30;;
5460;SDS011;2753;49.196;8.286;2023-06-19T07:25:23;4.53;;;4.23;;
5460;SDS011;2753;49.196;8.286;2023-06-19T07:27:50;5.10;;;4.60;;
5460;SDS011;2753;49.196;8.286;2023-06-19T07:30:16;5.80;;;4.73;;
5460;SDS011;2753;49.196;8.286;2023-06-19T07:32:42;10.17;;;4.77;;
5460;SDS011;2753;49.196;8.286;2023-06-19T07:35:07;10.17;;;4.87;;
5460;SDS011;2753;49.196;8.286;2023-06-19T07:37:33;5.90;;;5.40;;
5460;SDS011;2753;49.196;8.286;2023-06-19T07:39:59;5.10;;;4.70;;
5460;SDS011;2753;49.196;8.286;2023-06-19T07:42:25;5.37;;;4.80;;
5460;SDS011;2753;49.196;8.286;2023-06-19T07:44:51;7.00;;;5.43;;
5460;SDS011;2753;49.196;8.286;2023-06-19T07:47:17;4.60;;;4.20;;
5460;SDS011;2753;49.196;8.286;2023-06-19T07:49:43;6.60;;;5.17;;
5460;SDS011;2753;49.196;8.286;2023-06-19T07:52:10;5.10;;;4.27;;
5460;SDS011;2753;49.196;8.286;2023-06-19T07:54:36;9.23;;;5.07;;
5460;SDS011;2753;49.196;8.286;2023-06-19T07:57:02;6.27;;;4.63;;
5460;SDS011;2753;49.196;8.286;2023-06-19T07:59:27;5.80;;;5.23;;
5460;SDS011;2753;49.196;8.286;2023-06-19T08:01:53;5.40;;;5.00;;
5460;SDS011;2753;49.196;8.286;2023-06-19T08:04:19;5.43;;;4.93;;
5460;SDS011;2753;49.196;8.286;2023-06-19T08:06:44;5.87;;;4.90;;
5460;SDS011;2753;49.196;8.286;2023-06-19T08:09:10;7.93;;;4.60;;
5460;SDS011;2753;49.196;8.286;2023-06-19T08:11:36;5.43;;;5.03;;
5460;SDS011;2753;49.196;8.286;2023-06-19T08:14:02;5.53;;;5.00;;
5460;SDS011;2753;49.196;8.286;2023-06-19T08:16:28;5.40;;;5.00;;
5460;SDS011;2753;49.196;8.286;2023-06-19T08:18:54;6.10;;;5.50;;
5460;SDS011;2753;49.196;8.286;2023-06-19T08:21:20;10.33;;;4.93;;
5460;SDS011;2753;49.196;8.286;2023-06-19T08:23:46;5.00;;;4.57;;
5460;SDS011;2753;49.196;8.286;2023-06-19T08:26:13;9.53;;;4.90;;
5460;SDS011;2753;49.196;8.286;2023-06-19T08:28:39;6.40;;;5.13;;
5460;SDS011;2753;49.196;8.286;2023-06-19T08:31:06;6.50;;;5.73;;
5460;SDS011;2753;49.196;8.286;2023-06-19T08:33:33;5.17;;;4.60;;
5460;SDS011;2753;49.196;8.286;2023-06-19T08:36:00;6.20;;;5.43;;
5460;SDS011;2753;49.196;8.286;2023-06-19T08:38:26;7.53;;;5.37;;
5460;SDS011;2753;49.196;8.286;2023-06-19T08:40:51;7.93;;;5.37;;
5460;SDS011;2753;49.196;8.286;2023-06-19T08:43:18;6.80;;;5.60;;
5460;SDS011;2753;49.196;8.286;2023-06-19T08:45:43;7.07;;;5.03;;
5460;SDS011;2753;49.196;8.286;2023-06-19T08:48:26;6.57;;;5.80;;
5460;SDS011;2753;49.196;8.286;2023-06-19T08:50:52;8.73;;;5.67;;
5460;SDS011;2753;49.196;8.286;2023-06-19T08:53:20;5.03;;;4.63;;
5460;SDS011;2753;49.196;8.286;2023-06-19T08:55:45;8.43;;;5.47;;
5460;SDS011;2753;49.196;8.286;2023-06-19T08:58:11;6.57;;;5.33;;
5460;SDS011;2753;49.196;8.286;2023-06-19T09:00:47;6.53;;;4.93;;
5460;SDS011;2753;49.196;8.286;2023-06-19T09:03:12;8.67;;;5.60;;
5460;SDS011;2753;49.196;8.286;2023-06-19T09:05:48;6.50;;;5.63;;
5460;SDS011;2753;49.196;8.286;2023-06-19T09:08:20;6.13;;;5.53;;
5460;SDS011;2753;49.196;8.286;2023-06-19T09:10:57;8.50;;;6.03;;
5460;SDS011;2753;49.196;8.286;2023-06-19T09:13:30;12.30;;;4.73;;
5460;SDS011;2753;49.196;8.286;2023-06-19T09:16:00;6.37;;;5.57;;
5460;SDS011;2753;49.196;8.286;2023-06-19T09:18:42;6.90;;;5.20;;
5460;SDS011;2753;49.196;8.286;2023-06-19T09:21:19;6.57;;;5.90;;
5460;SDS011;2753;49.196;8.286;2023-06-19T09:23:48;6.37;;;5.80;;
5460;SDS011;2753;49.196;8.286;2023-06-19T09:26:16;12.37;;;5.30;;
5460;SDS011;2753;49.196;8.286;2023-06-19T09:28:44;6.60;;;6.10;;
5460;SDS011;2753;49.196;8.286;2023-06-19T09:31:10;6.77;;;5.17;;
5460;SDS011;2753;49.196;8.286;2023-06-19T09:33:37;12.17;;;6.17;;
5460;SDS011;2753;49.196;8.286;2023-06-19T09:36:04;7.20;;;6.60;;
5460;SDS011;2753;49.196;8.286;2023-06-19T09:38:40;10.77;;;5.70;;
5460;SDS011;2753;49.196;8.286;2023-06-19T09:41:06;6.20;;;5.60;;
5460;SDS011;2753;49.196;8.286;2023-06-19T09:43:44;6.23;;;5.67;;
5460;SDS011;2753;49.196;8.286;2023-06-19T09:46:12;7.90;;;5.77;;
5460;SDS011;2753;49.196;8.286;2023-06-19T09:48:43;8.20;;;4.80;;
5460;SDS011;2753;49.196;8.286;2023-06-19T09:53:46;6.93;;;5.90;;
5460;SDS011;2753;49.196;8.286;2023-06-19T09:56:14;6.43;;;5.40;;
5460;SDS011;2753;49.196;8.286;2023-06-19T09:58:41;5.63;;;5.13;;
5460;SDS011;2753;49.196;8.286;2023-06-19T10:01:08;5.83;;;5.43;;
5460;SDS011;2753;49.196;8.286;2023-06-19T10:03:35;7.23;;;5.83;;
5460;SDS011;2753;49.196;8.286;2023-06-19T10:06:01;6.13;;;5.23;;
5460;SDS011;2753;49.196;8.286;2023-06-19T10:08:37;6.17;;;5.67;;
5460;SDS011;2753;49.196;8.286;2023-06-19T10:11:05;6.13;;;5.67;;
5460;SDS011;2753;49.196;8.286;2023-06-19T10:13:32;16.23;;;5.80;;
5460;SDS011;2753;49.196;8.286;2023-06-19T10:16:04;5.97;;;5.30;;
5460;SDS011;2753;49.196;8.286;2023-06-19T10:18:31;8.40;;;6.00;;
5460;SDS011;2753;49.196;8.286;2023-06-19T10:20:58;5.63;;;5.17;;
5460;SDS011;2753;49.196;8.286;2023-06-19T10:23:24;8.87;;;6.60;;
5460;SDS011;2753;49.196;8.286;2023-06-19T10:28:31;4.93;;;4.63;;
5460;SDS011;2753;49.196;8.286;2023-06-19T10:30:59;6.27;;;5.50;;
5460;SDS011;2753;49.196;8.286;2023-06-19T10:33:31;5.60;;;5.10;;
5460;SDS011;2753;49.196;8.286;2023-06-19T10:35:58;5.73;;;5.33;;
5460;SDS011;2753;49.196;8.286;2023-06-19T10:38:25;7.53;;;5.53;;
5460;SDS011;2753;49.196;8.286;2023-06-19T10:40:51;8.60;;;5.40;;
5460;SDS011;2753;49.196;8.286;2023-06-19T10:43:24;5.67;;;5.17;;
5460;SDS011;2753;49.196;8.286;2023-06-19T10:45:53;5.50;;;5.10;;
5460;SDS011;2753;49.196;8.286;2023-06-19T10:48:22;5.40;;;4.97;;
5460;SDS011;2753;49.196;8.286;2023-06-19T10:50:49;7.10;;;5.30;;
5460;SDS011;2753;49.196;8.286;2023-06-19T10:53:31;7.20;;;5.83;;
5460;SDS011;2753;49.196;8.286;2023-06-19T10:55:59;8.33;;;5.50;;
5460;SDS011;2753;49.196;8.286;2023-06-19T10:58:26;5.63;;;5.03;;
5460;SDS011;2753;49.196;8.286;2023-06-19T11:00:53;5.43;;;4.70;;
5460;SDS011;2753;49.196;8.286;2023-06-19T11:03:19;5.50;;;5.10;;
5460;SDS011;2753;49.196;8.286;2023-06-19T11:05:45;5.07;;;4.77;;
5460;SDS011;2753;49.196;8.286;2023-06-19T11:08:17;6.63;;;6.03;;
5460;SDS011;2753;49.196;8.286;2023-06-19T11:10:47;5.27;;;4.77;;
5460;SDS011;2753;49.196;8.286;2023-06-19T11:13:14;8.53;;;5.13;;
5460;SDS011;2753;49.196;8.286;2023-06-19T11:15:43;5.33;;;4.93;;
5460;SDS011;2753;49.196;8.286;2023-06-19T11:18:09;9.80;;;4.77;;
5460;SDS011;2753;49.196;8.286;2023-06-19T11:23:14;5.87;;;5.37;;
5460;SDS011;2753;49.196;8.286;2023-06-19T11:25:41;6.07;;;5.57;;
5460;SDS011;2753;49.196;8.286;2023-06-19T11:28:11;6.00;;;4.70;;
5460;SDS011;2753;49.196;8.286;2023-06-19T11:30:40;5.50;;;5.10;;
5460;SDS011;2753;49.196;8.286;2023-06-19T11:33:16;5.67;;;5.17;;
5460;SDS011;2753;49.196;8.286;2023-06-19T11:35:47;5.47;;;4.93;;
5460;SDS011;2753;49.196;8.286;2023-06-19T11:38:18;5.47;;;5.00;;
5460;SDS011;2753;49.196;8.286;2023-06-19T11:40:48;4.97;;;4.57;;
5460;SDS011;2753;49.196;8.286;2023-06-19T11:43:27;4.70;;;4.30;;
5460;SDS011;2753;49.196;8.286;2023-06-19T11:46:03;5.33;;;4.83;;
5460;SDS011;2753;49.196;8.286;2023-06-19T11:48:30;5.50;;;4.60;;
5460;SDS011;2753;49.196;8.286;2023-06-19T11:50:56;5.40;;;4.77;;
5460;SDS011;2753;49.196;8.286;2023-06-19T11:53:22;4.90;;;4.50;;
5460;SDS011;2753;49.196;8.286;2023-06-19T11:55:49;6.27;;;4.53;;
5460;SDS011;2753;49.196;8.286;2023-06-19T11:58:15;5.30;;;4.70;;
5460;SDS011;2753;49.196;8.286;2023-06-19T12:00:42;5.00;;;4.60;;
5460;SDS011;2753;49.196;8.286;2023-06-19T12:03:08;4.80;;;4.40;;
5460;SDS011;2753;49.196;8.286;2023-06-19T12:05:34;5.00;;;4.10;;
5460;SDS011;2753;49.196;8.286;2023-06-19T12:08:01;6.07;;;4.83;;
5460;SDS011;2753;49.196;8.286;2023-06-19T12:10:27;5.90;;;5.43;;
5460;SDS011;2753;49.196;8.286;2023-06-19T12:12:53;5.20;;;4.80;;
5460;SDS011;2753;49.196;8.286;2023-06-19T12:15:19;6.67;;;5.30;;
5460;SDS011;2753;49.196;8.286;2023-06-19T12:17:45;4.60;;;4.20;;
5460;SDS011;2753;49.196;8.286;2023-06-19T12:20:11;4.43;;;4.13;;
5460;SDS011;2753;49.196;8.286;2023-06-19T12:22:39;5.10;;;4.70;;
5460;SDS011;2753;49.196;8.286;2023-06-19T12:25:05;5.23;;;4.67;;
5460;SDS011;2753;49.196;8.286;2023-06-19T12:27:31;4.90;;;4.60;;
5460;SDS011;2753;49.196;8.286;2023-06-19T12:29:56;5.33;;;4.83;;
5460;SDS011;2753;49.196;8.286;2023-06-19T12:32:22;4.30;;;4.03;;
5460;SDS011;2753;49.196;8.286;2023-06-19T12:34:49;4.50;;;4.20;;
5460;SDS011;2753;49.196;8.286;2023-06-19T12:37:19;4.90;;;4.07;;
5460;SDS011;2753;49.196;8.286;2023-06-19T12:39:48;4.70;;;4.33;;
5460;SDS011;2753;49.196;8.286;2023-06-19T12:42:15;4.97;;;4.57;;
5460;SDS011;2753;49.196;8.286;2023-06-19T12:44:41;12.33;;;4.60;;
5460;SDS011;2753;49.196;8.286;2023-06-19T12:47:07;5.67;;;4.40;;
5460;SDS011;2753;49.196;8.286;2023-06-19T12:49:33;7.90;;;4.17;;
5460;SDS011;2753;49.196;8.286;2023-06-19T12:51:59;4.40;;;4.10;;
5460;SDS011;2753;49.196;8.286;2023-06-19T12:54:25;4.60;;;4.20;;
5460;SDS011;2753;49.196;8.286;2023-06-19T12:56:52;7.37;;;4.80;;
5460;SDS011;2753;49.196;8.286;2023-06-19T12:59:18;5.37;;;4.80;;
5460;SDS011;2753;49.196;8.286;2023-06-19T13:01:43;4.67;;;4.27;;
5460;SDS011;2753;49.196;8.286;2023-06-19T13:04:09;5.50;;;4.50;;
5460;SDS011;2753;49.196;8.286;2023-06-19T13:06:36;5.43;;;4.20;;
5460;SDS011;2753;49.196;8.286;2023-06-19T13:09:03;4.50;;;4.20;;
5460;SDS011;2753;49.196;8.286;2023-06-19T13:11:30;3.77;;;3.47;;
5460;SDS011;2753;49.196;8.286;2023-06-19T13:13:56;7.73;;;3.53;;
5460;SDS011;2753;49.196;8.286;2023-06-19T13:16:22;4.63;;;4.33;;
5460;SDS011;2753;49.196;8.286;2023-06-19T13:18:50;4.80;;;4.43;;
5460;SDS011;2753;49.196;8.286;2023-06-19T13:21:16;4.97;;;4.60;;
5460;SDS011;2753;49.196;8.286;2023-06-19T13:23:42;4.30;;;4.00;;
5460;SDS011;2753;49.196;8.286;2023-06-19T13:26:08;5.93;;;4.70;;
5460;SDS011;2753;49.196;8.286;2023-06-19T13:28:34;4.40;;;4.10;;
5460;SDS011;2753;49.196;8.286;2023-06-19T13:31:00;5.97;;;4.70;;
5460;SDS011;2753;49.196;8.286;2023-06-19T13:33:26;4.73;;;4.33;;
5460;SDS011;2753;49.196;8.286;2023-06-19T13:35:52;6.13;;;4.10;;
5460;SDS011;2753;49.196;8.286;2023-06-19T13:38:18;6.50;;;4.57;;
5460;SDS011;2753;49.196;8.286;2023-06-19T13:40:44;7.20;;;4.10;;
5460;SDS011;2753;49.196;8.286;2023-06-19T13:43:10;6.83;;;4.00;;
5460;SDS011;2753;49.196;8.286;2023-06-19T13:45:36;4.30;;;4.00;;
5460;SDS011;2753;49.196;8.286;2023-06-19T13:48:03;7.20;;;4.90;;
5460;SDS011;2753;49.196;8.286;2023-06-19T13:50:30;4.10;;;3.90;;
5460;SDS011;2753;49.196;8.286;2023-06-19T13:52:57;7.60;;;4.10;;
5460;SDS011;2753;49.196;8.286;2023-06-19T13:55:23;6.13;;;4.00;;
5460;SDS011;2753;49.196;8.286;2023-06-19T13:57:49;6.87;;;4.50;;
5460;SDS011;2753;49.196;8.286;2023-06-19T14:00:15;4.63;;;4.23;;
5460;SDS011;2753;49.196;8.286;2023-06-19T14:02:41;4.70;;;4.37;;
5460;SDS011;2753;49.196;8.286;2023-06-19T14:05:07;4.30;;;4.00;;
5460;SDS011;2753;49.196;8.286;2023-06-19T14:07:34;4.77;;;4.47;;
5460;SDS011;2753;49.196;8.286;2023-06-19T14:10:01;4.93;;;4.30;;
5460;SDS011;2753;49.196;8.286;2023-06-19T14:12:28;7.23;;;3.80;;
5460;SDS011;2753;49.196;8.286;2023-06-19T14:14:54;5.30;;;4.80;;
5460;SDS011;2753;49.196;8.286;2023-06-19T14:17:21;9.93;;;4.50;;
5460;SDS011;2753;49.196;8.286;2023-06-19T14:19:46;4.67;;;4.23;;
5460;SDS011;2753;49.196;8.286;2023-06-19T14:22:12;5.33;;;4.83;;
5460;SDS011;2753;49.196;8.286;2023-06-19T14:24:38;4.70;;;4.40;;
5460;SDS011;2753;49.196;8.286;2023-06-19T14:27:04;4.53;;;4.23;;
5460;SDS011;2753;49.196;8.286;2023-06-19T14:29:30;4.67;;;4.37;;
5460;SDS011;2753;49.196;8.286;2023-06-19T14:31:55;3.97;;;3.77;;
5460;SDS011;2753;49.196;8.286;2023-06-19T14:34:21;3.50;;;3.30;;
5460;SDS011;2753;49.196;8.286;2023-06-19T14:36:47;6.33;;;4.40;;
5460;SDS011;2753;49.196;8.286;2023-06-19T14:39:13;4.87;;;4.37;;
5460;SDS011;2753;49.196;8.286;2023-06-19T14:41:39;4.63;;;4.33;;
5460;SDS011;2753;49.196;8.286;2023-06-19T14:44:05;4.30;;;3.90;;
5460;SDS011;2753;49.196;8.286;2023-06-19T14:46:31;5.20;;;4.70;;
5460;SDS011;2753;49.196;8.286;2023-06-19T14:48:57;5.13;;;4.30;;
5460;SDS011;2753;49.196;8.286;2023-06-19T14:51:26;4.60;;;4.20;;
5460;SDS011;2753;49.196;8.286;2023-06-19T14:53:52;4.23;;;3.93;;
5460;SDS011;2753;49.196;8.286;2023-06-19T14:56:18;6.33;;;4.40;;
5460;SDS011;2753;49.196;8.286;2023-06-19T14:58:43;12.37;;;5.27;;
5460;SDS011;2753;49.196;8.286;2023-06-19T15:01:09;5.83;;;4.00;;
5460;SDS011;2753;49.196;8.286;2023-06-19T15:03:35;4.60;;;4.20;;
5460;SDS011;2753;49.196;8.286;2023-06-19T15:06:02;4.43;;;4.13;;
5460;SDS011;2753;49.196;8.286;2023-06-19T15:08:28;6.63;;;4.57;;
5460;SDS011;2753;49.196;8.286;2023-06-19T15:10:56;6.40;;;4.30;;
5460;SDS011;2753;49.196;8.286;2023-06-19T15:13:22;4.37;;;3.97;;
5460;SDS011;2753;49.196;8.286;2023-06-19T15:15:48;5.17;;;4.67;;
5460;SDS011;2753;49.196;8.286;2023-06-19T15:18:15;4.53;;;4.20;;
5460;SDS011;2753;49.196;8.286;2023-06-19T15:20:41;7.07;;;4.63;;
5460;SDS011;2753;49.196;8.286;2023-06-19T15:23:07;4.97;;;4.40;;
5460;SDS011;2753;49.196;8.286;2023-06-19T15:25:33;4.93;;;4.60;;
5460;SDS011;2753;49.196;8.286;2023-06-19T15:27:59;5.17;;;4.23;;
5460;SDS011;2753;49.196;8.286;2023-06-19T15:30:25;7.70;;;4.70;;
5460;SDS011;2753;49.196;8.286;2023-06-19T15:32:51;8.40;;;6.23;;
5460;SDS011;2753;49.196;8.286;2023-06-19T15:35:17;6.63;;;6.00;;
5460;SDS011;2753;49.196;8.286;2023-06-19T15:37:43;14.00;;;12.60;;
5460;SDS011;2753;49.196;8.286;2023-06-19T15:40:09;15.43;;;11.83;;
5460;SDS011;2753;49.196;8.286;2023-06-19T15:42:35;7.93;;;6.27;;
5460;SDS011;2753;49.196;8.286;2023-06-19T15:45:01;7.37;;;5.67;;
5460;SDS011;2753;49.196;8.286;2023-06-19T15:47:27;5.10;;;4.70;;
5460;SDS011;2753;49.196;8.286;2023-06-19T15:49:53;4.00;;;3.80;;
5460;SDS011;2753;49.196;8.286;2023-06-19T15:52:19;4.57;;;4.33;;
5460;SDS011;2753;49.196;8.286;2023-06-19T15:54:45;4.50;;;4.07;;
5460;SDS011;2753;49.196;8.286;2023-06-19T15:57:11;4.30;;;4.03;;
5460;SDS011;2753;49.196;8.286;2023-06-19T15:59:37;4.63;;;4.03;;
5460;SDS011;2753;49.196;8.286;2023-06-19T16:02:03;5.73;;;4.70;;
5460;SDS011;2753;49.196;8.286;2023-06-19T16:04:29;9.23;;;4.40;;
5460;SDS011;2753;49.196;8.286;2023-06-19T16:06:55;4.97;;;4.23;;